createdAt,value
2023-05-19T00:01:00.447Z,76.13
2023-05-19T00:03:27.393Z,76.21
2023-05-19T00:05:54.443Z,76.38
2023-05-19T00:08:24.544Z,76.02
2023-05-19T00:10:51.184Z,76.27
2023-05-19T00:13:17.877Z,76.05
2023-05-19T00:15:44.628Z,76.19
2023-05-19T00:18:14.010Z,76.12
2023-05-19T00:20:40.769Z,76.21
2023-05-19T00:23:07.251Z,76.58
2023-05-19T00:25:33.733Z,76.21
2023-05-19T00:28:00.629Z,76.29
2023-05-19T00:30:27.317Z,76.55
2023-05-19T00:32:53.924Z,76.81
2023-05-19T00:35:20.421Z,77.13
2023-05-19T00:37:47.089Z,76.85
2023-05-19T00:40:13.668Z,77.19
2023-05-19T00:42:41.213Z,77.22
2023-05-19T00:45:08.227Z,77.04
2023-05-19T00:47:34.875Z,77.05
2023-05-19T00:50:01.345Z,77.08
2023-05-19T00:52:28.217Z,77.09
2023-05-19T00:54:55.677Z,77.50
2023-05-19T00:57:22.324Z,77.67
2023-05-19T00:59:49.069Z,77.54
2023-05-19T01:02:15.651Z,77.75
2023-05-19T01:04:44.793Z,77.58
2023-05-19T01:07:12.505Z,77.72
2023-05-19T01:09:39.427Z,77.96
2023-05-19T01:12:06.432Z,78.34
2023-05-19T01:14:32.978Z,78.42
2023-05-19T01:17:23.688Z,78.02
2023-05-19T01:20:02.141Z,78.16
2023-05-19T01:23:01.012Z,78.77
2023-05-19T01:26:04.472Z,78.48
2023-05-19T01:28:48.634Z,78.76
2023-05-19T01:31:16.884Z,79.12
2023-05-19T01:33:44.424Z,78.69
2023-05-19T01:36:12.462Z,79.39
2023-05-19T01:38:40.044Z,78.99
2023-05-19T01:41:07.500Z,79.35
2023-05-19T01:43:35.933Z,79.24
2023-05-19T01:46:03.271Z,79.35
2023-05-19T01:48:30.945Z,79.41
2023-05-19T01:50:57.706Z,79.82
2023-05-19T01:53:24.670Z,79.51
2023-05-19T01:55:53.548Z,79.82
2023-05-19T01:58:42.012Z,79.89
2023-05-19T02:01:26.851Z,80.20
2023-05-19T02:03:56.247Z,80.15
2023-05-19T02:06:38.108Z,79.61
2023-05-19T02:09:33.159Z,80.10
2023-05-19T02:12:06.149Z,80.05
2023-05-19T02:14:45.351Z,80.15
2023-05-19T02:17:14.683Z,80.01
2023-05-19T02:19:42.583Z,80.18
2023-05-19T02:22:09.111Z,80.51
2023-05-19T02:24:37.583Z,80.34
2023-05-19T02:27:04.233Z,80.75
2023-05-19T02:29:30.772Z,80.61
2023-05-19T02:31:57.280Z,80.48
2023-05-19T02:34:23.766Z,80.85
2023-05-19T02:36:50.642Z,80.91
2023-05-19T02:39:17.199Z,80.66
2023-05-19T02:41:43.633Z,80.91
2023-05-19T02:44:10.115Z,81.47
2023-05-19T02:46:36.591Z,81.33
2023-05-19T02:49:03.057Z,81.71
2023-05-19T02:51:29.587Z,81.41
2023-05-19T02:53:56.070Z,81.13
2023-05-19T02:56:22.541Z,81.27
2023-05-19T02:58:49.031Z,81.54
2023-05-19T03:01:15.873Z,81.59
2023-05-19T03:03:42.437Z,81.60
2023-05-19T03:06:09.387Z,81.45
2023-05-19T03:08:36.431Z,81.81
2023-05-19T03:11:03.671Z,81.84
2023-05-19T03:13:30.191Z,82.05
2023-05-19T03:15:58.749Z,82.12
2023-05-19T03:18:26.539Z,82.11
2023-05-19T03:20:56.542Z,82.39
2023-05-19T03:23:23.133Z,82.65
2023-05-19T03:25:49.551Z,82.75
2023-05-19T03:28:17.175Z,82.05
2023-05-19T03:30:43.619Z,82.27
2023-05-19T03:33:10.282Z,82.21
2023-05-19T03:35:36.974Z,82.33
2023-05-19T03:38:03.478Z,82.18
2023-05-19T03:40:30.100Z,82.56
2023-05-19T03:42:56.797Z,82.42
2023-05-19T03:45:23.338Z,82.89
2023-05-19T03:47:49.809Z,82.80
2023-05-19T03:50:16.279Z,82.96
2023-05-19T03:52:45.465Z,82.68
2023-05-19T03:55:12.589Z,82.53
2023-05-19T03:57:39.017Z,82.86
2023-05-19T04:00:06.268Z,82.70
2023-05-19T04:02:32.731Z,82.99
2023-05-19T04:04:59.268Z,83.17
2023-05-19T04:07:25.820Z,83.05
2023-05-19T04:09:52.229Z,83.00
2023-05-19T04:12:18.714Z,83.32
2023-05-19T04:14:45.168Z,83.37
2023-05-19T04:17:12.018Z,83.44
2023-05-19T04:19:38.455Z,83.25
2023-05-19T04:22:05.059Z,83.46
2023-05-19T04:24:31.803Z,83.76
2023-05-19T04:27:02.409Z,83.75
2023-05-19T04:29:29.547Z,84.06
2023-05-19T04:31:57.198Z,84.42
2023-05-19T04:34:23.604Z,84.17
2023-05-19T04:36:53.115Z,84.27
2023-05-19T04:39:19.997Z,84.41
2023-05-19T04:41:46.444Z,84.58
2023-05-19T04:44:13.556Z,84.42
2023-05-19T04:46:40.111Z,84.47
2023-05-19T04:49:06.645Z,84.80
2023-05-19T04:51:33.102Z,84.66
2023-05-19T04:53:59.550Z,85.25
2023-05-19T04:56:27.450Z,85.03
2023-05-19T04:58:53.975Z,85.20
2023-05-19T05:01:22.688Z,85.50
2023-05-19T05:03:49.313Z,85.41
2023-05-19T05:06:16.351Z,85.45
2023-05-19T05:08:42.825Z,85.10
2023-05-19T05:11:09.762Z,85.27
2023-05-19T05:13:36.390Z,85.20
2023-05-19T05:16:06.464Z,85.35
2023-05-19T05:18:33.733Z,85.74
2023-05-19T05:21:00.713Z,85.34
2023-05-19T05:23:27.723Z,85.27
2023-05-19T05:25:54.350Z,85.05
2023-05-19T05:28:21.019Z,85.00
2023-05-19T05:30:47.544Z,85.49
2023-05-19T05:33:14.209Z,85.44
2023-05-19T05:35:40.918Z,85.55
2023-05-19T05:38:07.361Z,85.28
2023-05-19T05:40:33.840Z,85.53
2023-05-19T05:43:00.266Z,85.54
2023-05-19T05:45:26.781Z,85.43
2023-05-19T05:47:53.650Z,84.88
2023-05-19T05:50:20.404Z,85.19
2023-05-19T05:52:47.931Z,85.30
2023-05-19T05:55:17.492Z,85.33
2023-05-19T05:57:44.093Z,84.94
2023-05-19T06:00:15.539Z,85.16
2023-05-19T06:02:47.397Z,85.42
2023-05-19T06:05:14.132Z,85.29
2023-05-19T06:07:41.176Z,84.50
2023-05-19T06:10:09.044Z,84.47
2023-05-19T06:12:36.126Z,84.56
2023-05-19T06:15:03.297Z,84.46
2023-05-19T06:17:29.832Z,83.95
2023-05-19T06:19:56.298Z,83.86
2023-05-19T06:22:22.727Z,83.84
2023-05-19T06:24:49.175Z,83.45
2023-05-19T06:27:15.721Z,83.57
2023-05-19T06:29:42.270Z,83.21
2023-05-19T06:32:08.717Z,83.37
2023-05-19T06:34:35.616Z,83.48
2023-05-19T06:37:02.426Z,83.67
2023-05-19T06:39:28.936Z,83.22
2023-05-19T06:41:55.441Z,82.60
2023-05-19T06:44:22.530Z,82.00
2023-05-19T06:46:49.022Z,81.53
2023-05-19T06:49:15.664Z,80.96
2023-05-19T06:51:42.092Z,81.02
2023-05-19T06:54:11.037Z,80.70
2023-05-19T06:56:37.500Z,80.60
2023-05-19T06:59:04.127Z,81.10
2023-05-19T07:01:31.045Z,80.26
2023-05-19T07:03:57.748Z,80.48
2023-05-19T07:06:24.251Z,80.07
2023-05-19T07:08:50.824Z,79.37
2023-05-19T07:11:17.762Z,78.67
2023-05-19T07:13:44.214Z,79.19
2023-05-19T07:16:10.680Z,77.32
2023-05-19T07:18:37.222Z,77.78
2023-05-19T07:21:03.823Z,77.14
2023-05-19T07:23:30.258Z,76.73
2023-05-19T07:25:56.914Z,76.91
2023-05-19T07:28:23.489Z,76.57
2023-05-19T07:30:49.978Z,76.88
2023-05-19T07:33:16.482Z,76.66
2023-05-19T07:35:43.060Z,76.25
2023-05-19T07:38:09.593Z,74.97
2023-05-19T07:40:36.094Z,73.36
2023-05-19T07:43:02.516Z,73.47
2023-05-19T07:45:28.992Z,73.25
2023-05-19T07:47:55.531Z,73.72
2023-05-19T07:50:22.380Z,73.09
2023-05-19T07:52:48.905Z,72.08
2023-05-19T07:55:16.528Z,72.07
2023-05-19T07:57:42.959Z,72.61
2023-05-19T08:00:11.923Z,71.70
2023-05-19T08:02:38.449Z,70.24
2023-05-19T08:05:05.510Z,70.42
2023-05-19T08:07:31.950Z,69.71
2023-05-19T08:09:58.408Z,69.21
2023-05-19T08:12:24.854Z,69.53
2023-05-19T08:14:52.453Z,69.00
2023-05-19T08:17:19.175Z,67.83
2023-05-19T08:19:45.915Z,67.33
2023-05-19T08:22:12.403Z,67.20
2023-05-19T08:24:39.295Z,66.44
2023-05-19T08:27:06.780Z,65.21
2023-05-19T08:29:33.222Z,64.87
2023-05-19T08:32:00.336Z,64.54
2023-05-19T08:34:26.860Z,65.95
2023-05-19T08:36:53.529Z,64.80
2023-05-19T08:39:24.201Z,65.46
2023-05-19T08:41:50.729Z,64.00
2023-05-19T08:44:18.909Z,62.28
2023-05-19T08:46:49.974Z,61.44
2023-05-19T08:49:18.179Z,60.96
2023-05-19T08:51:56.216Z,60.19
2023-05-19T08:54:29.296Z,58.75
2023-05-19T08:56:58.739Z,59.25
2023-05-19T08:59:25.641Z,59.02
2023-05-19T09:01:54.883Z,59.69
2023-05-19T09:04:22.251Z,59.50
2023-05-19T09:06:50.295Z,58.65
2023-05-19T09:09:17.328Z,57.84
2023-05-19T09:11:46.770Z,59.07
2023-05-19T09:14:13.179Z,58.48
2023-05-19T09:16:40.294Z,57.26
2023-05-19T09:19:15.494Z,56.86
2023-05-19T09:21:42.127Z,56.24
2023-05-19T09:24:09.875Z,56.68
2023-05-19T09:26:41.116Z,56.73
2023-05-19T09:29:15.427Z,55.62
2023-05-19T09:32:08.565Z,55.48
2023-05-19T09:34:35.017Z,55.37
2023-05-19T09:37:01.518Z,55.15
2023-05-19T09:39:28.817Z,56.05
2023-05-19T09:41:58.779Z,55.81
2023-05-19T09:44:30.539Z,55.69
2023-05-19T09:46:58.608Z,55.67
2023-05-19T09:49:31.313Z,53.33
2023-05-19T09:52:07.522Z,54.47
2023-05-19T09:54:34.446Z,54.55
2023-05-19T09:57:03.513Z,53.65
2023-05-19T09:59:33.514Z,55.14
2023-05-19T10:02:01.319Z,55.44
2023-05-19T10:04:29.507Z,54.33
2023-05-19T10:06:59.457Z,53.37
2023-05-19T10:09:27.966Z,54.04
2023-05-19T10:11:56.562Z,53.43
2023-05-19T10:14:32.070Z,53.99
2023-05-19T10:16:59.694Z,54.09
2023-05-19T10:19:28.764Z,55.02
2023-05-19T10:21:56.045Z,54.34
2023-05-19T10:24:22.533Z,54.58
2023-05-19T10:26:55.043Z,53.92
2023-05-19T10:29:29.414Z,55.33
2023-05-19T10:31:59.123Z,54.59
2023-05-19T10:34:31.730Z,54.67
2023-05-19T10:37:31.918Z,54.84
2023-05-19T10:39:58.827Z,53.83
2023-05-19T10:42:36.725Z,53.85
2023-05-19T10:45:20.251Z,54.50
2023-05-19T10:47:46.866Z,53.18
2023-05-19T10:50:13.618Z,52.25
2023-05-19T10:52:40.683Z,53.83
2023-05-19T10:55:08.754Z,54.58
2023-05-19T10:57:35.583Z,52.81
2023-05-19T11:00:27.995Z,52.67
2023-05-19T11:02:57.900Z,52.57
2023-05-19T11:05:29.435Z,52.76
2023-05-19T11:08:05.003Z,50.61
2023-05-19T11:10:31.946Z,49.12
2023-05-19T11:12:58.670Z,51.21
2023-05-19T11:15:28.701Z,53.79
2023-05-19T11:17:55.635Z,51.58
2023-05-19T11:20:24.570Z,51.29
2023-05-19T11:23:06.797Z,50.22
2023-05-19T11:25:44.215Z,49.40
2023-05-19T11:28:13.263Z,48.97
2023-05-19T11:30:42.738Z,49.11
2023-05-19T11:33:13.742Z,48.61
2023-05-19T11:35:41.017Z,48.32
2023-05-19T11:38:07.573Z,48.42
2023-05-19T11:40:34.073Z,48.51
2023-05-19T11:43:01.874Z,49.09
2023-05-19T11:45:31.610Z,49.00
2023-05-19T11:48:02.701Z,50.31
2023-05-19T11:50:31.429Z,49.31
2023-05-19T11:53:00.305Z,47.54
2023-05-19T11:55:27.438Z,47.23
2023-05-19T11:58:03.924Z,46.62
2023-05-19T12:00:39.261Z,45.65
2023-05-19T12:03:06.564Z,45.59
2023-05-19T12:05:39.976Z,46.83
2023-05-19T12:08:08.829Z,47.71
2023-05-19T12:10:35.848Z,47.41
2023-05-19T12:13:03.084Z,47.31
2023-05-19T12:15:31.670Z,47.52
2023-05-19T12:18:00.290Z,46.05
2023-05-19T12:20:28.591Z,44.96
2023-05-19T12:22:56.280Z,45.83
2023-05-19T12:25:23.480Z,47.00
2023-05-19T12:27:52.592Z,46.41
2023-05-19T12:30:26.579Z,46.90
2023-05-19T12:32:54.378Z,47.03
2023-05-19T12:35:23.257Z,46.12
2023-05-19T12:37:50.650Z,45.28
2023-05-19T12:40:17.141Z,45.40
2023-05-19T12:42:48.734Z,46.51
2023-05-19T12:45:15.358Z,48.08
2023-05-19T12:47:42.014Z,47.30
2023-05-19T12:50:10.260Z,44.69
2023-05-19T12:52:48.145Z,44.70
2023-05-19T12:55:16.635Z,44.68
2023-05-19T12:57:45.013Z,47.27
2023-05-19T13:00:22.956Z,46.05
2023-05-19T13:03:07.025Z,47.82
2023-05-19T13:05:36.971Z,46.31
2023-05-19T13:08:08.553Z,46.02
2023-05-19T13:10:37.200Z,47.05
2023-05-19T13:13:04.372Z,47.19
2023-05-19T13:15:34.445Z,47.21
2023-05-19T13:18:09.118Z,47.51
2023-05-19T13:20:37.368Z,48.21
2023-05-19T13:23:04.797Z,47.37
2023-05-19T13:25:32.788Z,46.67
2023-05-19T13:28:01.318Z,47.49
2023-05-19T13:30:28.290Z,47.35
2023-05-19T13:32:54.806Z,48.02
2023-05-19T13:35:21.363Z,47.50
2023-05-19T13:37:48.964Z,47.83
2023-05-19T13:40:16.999Z,45.22
2023-05-19T13:42:43.667Z,46.18
2023-05-19T13:45:10.308Z,46.29
2023-05-19T13:47:37.629Z,47.16
2023-05-19T13:50:04.971Z,47.51
2023-05-19T13:52:31.489Z,47.48
2023-05-19T13:54:57.924Z,47.04
2023-05-19T13:57:26.251Z,47.48
2023-05-19T14:00:01.786Z,47.50
2023-05-19T14:02:30.507Z,46.87
2023-05-19T14:04:57.526Z,47.23
2023-05-19T14:07:24.247Z,47.16
2023-05-19T14:09:51.952Z,45.62
2023-05-19T14:12:18.676Z,44.33
2023-05-19T14:14:45.719Z,45.77
2023-05-19T14:17:12.178Z,45.01
2023-05-19T14:19:38.619Z,45.30
2023-05-19T14:22:05.199Z,46.08
2023-05-19T14:24:31.757Z,45.86
2023-05-19T14:26:58.200Z,45.76
2023-05-19T14:29:24.591Z,45.32
2023-05-19T14:31:51.070Z,44.73
2023-05-19T14:34:21.040Z,45.21
2023-05-19T14:36:49.027Z,44.20
2023-05-19T14:39:15.734Z,44.25
2023-05-19T14:41:42.199Z,44.49
2023-05-19T14:44:11.690Z,44.59
2023-05-19T14:46:38.191Z,45.26
2023-05-19T14:49:06.517Z,44.58
2023-05-19T14:51:33.058Z,44.18
2023-05-19T14:54:00.480Z,44.89
2023-05-19T14:56:27.076Z,44.26
2023-05-19T14:58:53.586Z,43.72
2023-05-19T15:01:20.076Z,44.80
2023-05-19T15:03:46.775Z,45.57
2023-05-19T15:06:13.282Z,45.54
2023-05-19T15:08:41.082Z,44.28
2023-05-19T15:11:07.904Z,44.57
2023-05-19T15:13:34.410Z,44.55
2023-05-19T15:16:15.383Z,43.97
2023-05-19T15:18:42.494Z,45.34
2023-05-19T15:21:08.949Z,44.79
2023-05-19T15:23:35.410Z,44.27
2023-05-19T15:26:01.949Z,44.74
2023-05-19T15:28:28.388Z,44.42
2023-05-19T15:30:54.920Z,44.39
2023-05-19T15:33:21.314Z,44.39
2023-05-19T15:35:51.583Z,45.62
2023-05-19T15:38:21.266Z,45.74
2023-05-19T15:40:47.806Z,46.30
2023-05-19T15:43:14.750Z,45.54
2023-05-19T15:45:41.461Z,45.08
2023-05-19T15:48:08.357Z,44.25
2023-05-19T15:50:35.566Z,44.84
2023-05-19T15:53:02.381Z,44.04
2023-05-19T15:55:28.901Z,44.63
2023-05-19T15:57:55.320Z,45.00
2023-05-19T16:00:21.754Z,44.52
2023-05-19T16:02:48.302Z,45.10
2023-05-19T16:05:14.859Z,44.21
2023-05-19T16:07:42.104Z,44.82
2023-05-19T16:10:09.085Z,45.00
2023-05-19T16:12:36.638Z,45.77
2023-05-19T16:15:03.441Z,45.39
2023-05-19T16:17:29.956Z,46.36
2023-05-19T16:19:56.574Z,47.35
2023-05-19T16:22:24.809Z,46.51
2023-05-19T16:24:52.280Z,46.21
2023-05-19T16:27:18.909Z,45.30
2023-05-19T16:29:45.414Z,45.58
2023-05-19T16:32:12.326Z,45.01
2023-05-19T16:34:38.882Z,46.39
2023-05-19T16:37:05.500Z,46.88
2023-05-19T16:39:32.023Z,45.87
2023-05-19T16:41:58.449Z,45.24
2023-05-19T16:44:25.779Z,45.69
2023-05-19T16:46:52.224Z,48.25
2023-05-19T16:49:18.727Z,48.31
2023-05-19T16:51:46.206Z,47.46
2023-05-19T16:54:13.920Z,47.34
2023-05-19T16:56:40.429Z,47.19
2023-05-19T16:59:07.715Z,47.61
2023-05-19T17:01:34.206Z,47.31
2023-05-19T17:04:00.712Z,47.17
2023-05-19T17:06:27.200Z,47.10
2023-05-19T17:08:53.738Z,46.17
2023-05-19T17:11:20.200Z,45.93
2023-05-19T17:13:46.918Z,45.94
2023-05-19T17:16:13.512Z,45.83
2023-05-19T17:18:40.085Z,46.15
2023-05-19T17:21:06.709Z,46.64
2023-05-19T17:23:33.227Z,46.87
2023-05-19T17:25:59.770Z,47.06
2023-05-19T17:28:26.192Z,47.58
2023-05-19T17:30:52.627Z,48.42
2023-05-19T17:33:19.235Z,48.44
2023-05-19T17:35:45.711Z,48.17
2023-05-19T17:38:12.142Z,48.71
2023-05-19T17:40:40.673Z,48.47
2023-05-19T17:43:08.673Z,48.17
2023-05-19T17:45:35.118Z,47.98
2023-05-19T17:48:01.776Z,48.61
2023-05-19T17:50:28.554Z,48.66
2023-05-19T17:52:56.127Z,48.72
2023-05-19T17:55:24.765Z,48.32
2023-05-19T17:57:51.383Z,47.98
2023-05-19T18:00:18.602Z,48.86
2023-05-19T18:02:45.411Z,48.17
2023-05-19T18:05:12.686Z,48.31
2023-05-19T18:07:40.209Z,48.99
2023-05-19T18:10:08.205Z,50.84
2023-05-19T18:12:34.703Z,49.58
2023-05-19T18:15:01.283Z,48.86
2023-05-19T18:17:27.870Z,49.14
2023-05-19T18:19:54.662Z,49.37
2023-05-19T18:22:21.258Z,49.92
2023-05-19T18:24:47.707Z,50.30
2023-05-19T18:27:14.134Z,49.56
2023-05-19T18:29:40.554Z,49.04
2023-05-19T18:32:07.418Z,51.45
2023-05-19T18:34:33.945Z,50.60
2023-05-19T18:37:00.377Z,49.97
2023-05-19T18:39:29.163Z,51.09
2023-05-19T18:41:55.932Z,52.17
2023-05-19T18:44:22.349Z,51.43
2023-05-19T18:46:48.814Z,49.67
2023-05-19T18:49:15.680Z,50.14
2023-05-19T18:51:42.496Z,53.65
2023-05-19T18:54:09.028Z,53.23
2023-05-19T18:56:35.652Z,51.93
2023-05-19T18:59:02.087Z,50.98
2023-05-19T19:01:28.731Z,52.54
2023-05-19T19:03:55.271Z,55.09
2023-05-19T19:06:23.025Z,53.73
2023-05-19T19:08:49.770Z,55.01
2023-05-19T19:11:16.215Z,53.48
2023-05-19T19:13:43.589Z,54.95
2023-05-19T19:16:10.713Z,54.47
2023-05-19T19:18:37.182Z,52.51
2023-05-19T19:21:05.688Z,52.97
2023-05-19T19:23:32.585Z,53.12
2023-05-19T19:25:59.105Z,53.81
2023-05-19T19:28:25.794Z,55.00
2023-05-19T19:30:52.274Z,54.25
2023-05-19T19:33:18.815Z,56.58
2023-05-19T19:35:46.909Z,55.72
2023-05-19T19:38:13.769Z,57.30
2023-05-19T19:40:40.238Z,56.74
2023-05-19T19:43:06.701Z,57.57
2023-05-19T19:45:34.721Z,58.37
2023-05-19T19:48:01.764Z,57.60
2023-05-19T19:50:28.395Z,58.60
2023-05-19T19:52:54.878Z,58.20
2023-05-19T19:55:21.622Z,59.16
2023-05-19T19:57:49.466Z,59.05
2023-05-19T20:00:16.601Z,58.93
2023-05-19T20:02:55.880Z,59.26
2023-05-19T20:05:29.736Z,58.52
2023-05-19T20:07:56.242Z,59.71
2023-05-19T20:10:22.715Z,59.25
2023-05-19T20:12:50.552Z,59.69
2023-05-19T20:15:17.267Z,60.07
2023-05-19T20:17:43.733Z,60.69
2023-05-19T20:20:12.271Z,61.13
2023-05-19T20:22:39.186Z,61.00
2023-05-19T20:25:06.230Z,61.52
2023-05-19T20:27:32.724Z,61.35
2023-05-19T20:29:59.150Z,60.50
2023-05-19T20:32:25.649Z,60.22
2023-05-19T20:34:52.168Z,61.09
2023-05-19T20:37:18.596Z,61.67
2023-05-19T20:39:45.075Z,62.11
2023-05-19T20:42:11.522Z,62.53
2023-05-19T20:44:37.969Z,63.99
2023-05-19T20:47:04.834Z,63.95
2023-05-19T20:49:31.244Z,64.08
2023-05-19T20:51:57.711Z,64.96
2023-05-19T20:54:24.158Z,65.62
2023-05-19T20:56:51.701Z,65.74
2023-05-19T20:59:18.248Z,66.28
2023-05-19T21:01:45.962Z,66.29
2023-05-19T21:04:12.541Z,66.69
2023-05-19T21:06:39.064Z,66.96
2023-05-19T21:09:06.837Z,67.37
2023-05-19T21:11:34.015Z,67.11
2023-05-19T21:14:06.276Z,67.16
2023-05-19T21:16:34.053Z,67.13
2023-05-19T21:19:01.794Z,67.26
2023-05-19T21:21:28.405Z,67.84
2023-05-19T21:23:54.862Z,67.74
2023-05-19T21:26:22.062Z,68.27
2023-05-19T21:28:48.631Z,67.42
2023-05-19T21:31:15.331Z,67.67
2023-05-19T21:33:41.777Z,67.79
2023-05-19T21:36:08.345Z,67.74
2023-05-19T21:38:34.836Z,67.84
2023-05-19T21:41:01.282Z,68.01
2023-05-19T21:43:27.723Z,67.85
2023-05-19T21:45:54.108Z,67.29
2023-05-19T21:48:21.422Z,67.30
2023-05-19T21:50:53.596Z,67.64
2023-05-19T21:53:20.344Z,68.17
2023-05-19T21:55:46.884Z,67.69
2023-05-19T21:58:13.361Z,67.48
2023-05-19T22:00:40.501Z,67.69
2023-05-19T22:03:07.363Z,67.56
2023-05-19T22:05:35.256Z,67.75
2023-05-19T22:08:01.904Z,66.88
2023-05-19T22:10:28.337Z,66.37
2023-05-19T22:12:54.733Z,66.05
2023-05-19T22:15:21.154Z,66.61
2023-05-19T22:17:47.650Z,66.81
2023-05-19T22:20:14.076Z,66.35
2023-05-19T22:22:40.765Z,66.14
2023-05-19T22:25:07.866Z,65.89
2023-05-19T22:27:34.283Z,66.50
2023-05-19T22:30:00.941Z,66.16
2023-05-19T22:32:27.489Z,66.07
2023-05-19T22:34:54.085Z,65.96
2023-05-19T22:37:22.785Z,65.78
2023-05-19T22:39:49.232Z,66.64
2023-05-19T22:42:15.804Z,66.38
2023-05-19T22:44:43.325Z,66.72
2023-05-19T22:47:13.430Z,66.89
2023-05-19T22:49:41.138Z,66.34
2023-05-19T22:52:09.771Z,66.62
2023-05-19T22:54:36.854Z,67.25
2023-05-19T22:57:03.662Z,67.28
2023-05-19T22:59:30.173Z,66.80
2023-05-19T23:01:56.684Z,67.59
2023-05-19T23:04:23.206Z,67.15
2023-05-19T23:06:50.061Z,67.17
2023-05-19T23:09:17.914Z,67.55
2023-05-19T23:11:44.885Z,67.94
2023-05-19T23:14:11.347Z,67.55
2023-05-19T23:16:37.861Z,68.26
2023-05-19T23:19:04.356Z,68.33
2023-05-19T23:21:32.441Z,68.34
2023-05-19T23:23:59.432Z,68.62
2023-05-19T23:26:26.923Z,68.65
2023-05-19T23:28:53.405Z,68.95
2023-05-19T23:31:20.191Z,68.94
2023-05-19T23:33:46.754Z,69.30
2023-05-19T23:36:13.480Z,69.31
2023-05-19T23:38:39.983Z,69.25
2023-05-19T23:41:06.420Z,69.17
2023-05-19T23:43:32.995Z,69.07
2023-05-19T23:46:00.219Z,69.09
2023-05-19T23:48:30.402Z,68.91
2023-05-19T23:50:59.896Z,68.78
2023-05-19T23:53:26.464Z,69.19
2023-05-19T23:55:52.941Z,68.94
2023-05-19T23:58:19.416Z,68.60
